Aviation Digital Data Service (ADDS)

Output produced by METARs form (0936 UTC 23 July 2019)
found at http://www.aviationweather.gov/metar/data/
 
METAR text: DNAA 230700Z 11005KT 9999 -DZ BKN008 23/21 Q1016 NOSIG RMK CB N TO E
Conditions at: DNAA (ABUJA , NG) observed 0700 UTC 23 July 2019
Temperature: 23.0°C (73°F)
Dewpoint: 21.0°C (70°F) [RH = 89%]
Pressure (altimeter): 30.00 inches Hg (1016.0 mb)
Winds: from the ESE (110 degrees) at 6 MPH (5 knots; 2.6 m/s)
Visibility: 6 or more miles (10+ km)
Ceiling: 800 feet AGL
Clouds: broken clouds at 800 feet AGL
Weather: -DZ  (light drizzle)

METAR text: DNAA 230400Z 16004KT 9999 FEW008 23/20 Q1015 NOSIG
Conditions at: DNAA (ABUJA , NG) observed 0400 UTC 23 July 2019
Temperature: 23.0°C (73°F)
Dewpoint: 20.0°C (68°F) [RH = 83%]
Pressure (altimeter): 29.97 inches Hg (1015.0 mb)
Winds: from the SSE (160 degrees) at 5 MPH (4 knots; 2.1 m/s)
Visibility: 6 or more miles (10+ km)
Ceiling: at least 12,000 feet AGL
Clouds: few clouds at 800 feet AGL
Weather: no significant weather observed at this time

METAR text: DNAA 230300Z 16002KT CAVOK 23/20 Q1014 NOSIG
Conditions at: DNAA (ABUJA , NG) observed 0300 UTC 23 July 2019
Temperature: 23.0°C (73°F)
Dewpoint: 20.0°C (68°F) [RH = 83%]
Pressure (altimeter): 29.94 inches Hg (1014.0 mb)
Winds: from the SSE (160 degrees) at 2 MPH (2 knots; 1.0 m/s)
Visibility: 6 or more miles (10+ km)
Ceiling: ceiling and visibility are OK
Clouds: unknown
Weather: no significant weather observed at this time

METAR text: DNAA 230100Z 05004KT 9999 FEW008 23/20 Q1014 NOSIG
Conditions at: DNAA (ABUJA , NG) observed 0100 UTC 23 July 2019
Temperature: 23.0°C (73°F)
Dewpoint: 20.0°C (68°F) [RH = 83%]
Pressure (altimeter): 29.94 inches Hg (1014.0 mb)
Winds: from the NE (50 degrees) at 5 MPH (4 knots; 2.1 m/s)
Visibility: 6 or more miles (10+ km)
Ceiling: at least 12,000 feet AGL
Clouds: few clouds at 800 feet AGL
Weather: no significant weather observed at this time

METAR text: DNAA 230000Z 14004KT 9999 FEW008 23/21 Q1015 NOSIG
Conditions at: DNAA (ABUJA , NG) observed 0000 UTC 23 July 2019
Temperature: 23.0°C (73°F)
Dewpoint: 21.0°C (70°F) [RH = 89%]
Pressure (altimeter): 29.97 inches Hg (1015.0 mb)
Winds: from the SE (140 degrees) at 5 MPH (4 knots; 2.1 m/s)
Visibility: 6 or more miles (10+ km)
Ceiling: at least 12,000 feet AGL
Clouds: few clouds at 800 feet AGL
Weather: no significant weather observed at this time

METAR text: DNAA 222300Z 09003KT 9999 FEW008 23/21 Q1016 NOSIG
Conditions at: DNAA (ABUJA , NG) observed 2300 UTC 22 July 2019
Temperature: 23.0°C (73°F)
Dewpoint: 21.0°C (70°F) [RH = 89%]
Pressure (altimeter): 30.00 inches Hg (1016.0 mb)
Winds: from the E (90 degrees) at 3 MPH (3 knots; 1.5 m/s)
Visibility: 6 or more miles (10+ km)
Ceiling: at least 12,000 feet AGL
Clouds: few clouds at 800 feet AGL
Weather: no significant weather observed at this time

METAR text: DNAA 222200Z VRB01KT 9999 TS FEW008 FEW019CB 23/20 Q1016 NOSIG RMK CB S TO SW
Conditions at: DNAA (ABUJA , NG) observed 2200 UTC 22 July 2019
Temperature: 23.0°C (73°F)
Dewpoint: 20.0°C (68°F) [RH = 83%]
Pressure (altimeter): 30.00 inches Hg (1016.0 mb)
Winds: variable direction winds at 1 MPH (1 knots; 0.5 m/s)
Visibility: 6 or more miles (10+ km)
Ceiling: at least 12,000 feet AGL
Clouds: few clouds at 800 feet AGL
few clouds at 1900 feet AGL
Weather: TS  (thunderstorm)

METAR text: DNAA 222100Z 00000KT 9999 FEW008 FEW019CB 23/20 Q1015 NOSIG RMK CB S TO SW
Conditions at: DNAA (ABUJA , NG) observed 2100 UTC 22 July 2019
Temperature: 23.0°C (73°F)
Dewpoint: 20.0°C (68°F) [RH = 83%]
Pressure (altimeter): 29.97 inches Hg (1015.0 mb)
Winds: calm
Visibility: 6 or more miles (10+ km)
Ceiling: at least 12,000 feet AGL
Clouds: few clouds at 800 feet AGL
few clouds at 1900 feet AGL
Weather: no significant weather observed at this time

METAR text: DNAA 222000Z VRB02KT 9999 TS FEW008 FEW019CB 23/20 Q1014 NOSIG RMK CB S TO SW
Conditions at: DNAA (ABUJA , NG) observed 2000 UTC 22 July 2019
Temperature: 23.0°C (73°F)
Dewpoint: 20.0°C (68°F) [RH = 83%]
Pressure (altimeter): 29.94 inches Hg (1014.0 mb)
Winds: variable direction winds at 2 MPH (2 knots; 1.0 m/s)
Visibility: 6 or more miles (10+ km)
Ceiling: at least 12,000 feet AGL
Clouds: few clouds at 800 feet AGL
few clouds at 1900 feet AGL
Weather: TS  (thunderstorm)

METAR text: DNAA 221700Z 00000KT 9999 SCT010 FEW020CB 26/22 Q1013 NOSIG RMK CB E TO SW
Conditions at: DNAA (ABUJA , NG) observed 1700 UTC 22 July 2019
Temperature: 26.0°C (79°F)
Dewpoint: 22.0°C (72°F) [RH = 79%]
Pressure (altimeter): 29.91 inches Hg (1013.0 mb)
Winds: calm
Visibility: 6 or more miles (10+ km)
Ceiling: at least 12,000 feet AGL
Clouds: scattered clouds at 1000 feet AGL
few clouds at 2000 feet AGL
Weather: no significant weather observed at this time

METAR text: DNAA 221600Z 26003KT 230V320 9999 SCT010 FEW020CB 26/22 Q1013 NOSIG RMK CB NE TO W
Conditions at: DNAA (ABUJA , NG) observed 1600 UTC 22 July 2019
Temperature: 26.0°C (79°F)
Dewpoint: 22.0°C (72°F) [RH = 79%]
Pressure (altimeter): 29.91 inches Hg (1013.0 mb)
Winds: from the W (260 degrees) at 3 MPH (3 knots; 1.5 m/s)
Visibility: 6 or more miles (10+ km)
Ceiling: at least 12,000 feet AGL
Clouds: scattered clouds at 1000 feet AGL
few clouds at 2000 feet AGL
Weather: no significant weather observed at this time

METAR text: DNAA 221500Z 27010KT 9999 -RA BKN010 FEW020CB 25/21 Q1013 TEMPO 5000 -TSRA RMK CB NE TO SE
Conditions at: DNAA (ABUJA , NG) observed 1500 UTC 22 July 2019
Temperature: 25.0°C (77°F)
Dewpoint: 21.0°C (70°F) [RH = 79%]
Pressure (altimeter): 29.91 inches Hg (1013.0 mb)
Winds: from the W (270 degrees) at 12 MPH (10 knots; 5.1 m/s)
Visibility: 6 or more miles (10+ km)
Ceiling: 1000 feet AGL
Clouds: broken clouds at 1000 feet AGL
few clouds at 2000 feet AGL
Weather: -RA  (light rain)

METAR text: DNAA 221400Z 25008KT 9999 BKN012 27/21 Q1013 TEMPO TS FEW020CB
Conditions at: DNAA (ABUJA , NG) observed 1400 UTC 22 July 2019
Temperature: 27.0°C (81°F)
Dewpoint: 21.0°C (70°F) [RH = 70%]
Pressure (altimeter): 29.91 inches Hg (1013.0 mb)
Winds: from the WSW (250 degrees) at 9 MPH (8 knots; 4.1 m/s)
Visibility: 6 or more miles (10+ km)
Ceiling: 1200 feet AGL
Clouds: broken clouds at 1200 feet AGL
Weather: no significant weather observed at this time

METAR text: DNAA 221200Z 26009KT 9999 BKN010 27/21 Q1016 NOSIG
Conditions at: DNAA (ABUJA , NG) observed 1200 UTC 22 July 2019
Temperature: 27.0°C (81°F)
Dewpoint: 21.0°C (70°F) [RH = 70%]
Pressure (altimeter): 30.00 inches Hg (1016.0 mb)
Winds: from the W (260 degrees) at 10 MPH (9 knots; 4.6 m/s)
Visibility: 6 or more miles (10+ km)
Ceiling: 1000 feet AGL
Clouds: broken clouds at 1000 feet AGL
Weather: no significant weather observed at this time

METAR text: DNAA 221100Z 25011KT 9999 BKN010 27/21 Q1016 NOSIG
Conditions at: DNAA (ABUJA , NG) observed 1100 UTC 22 July 2019
Temperature: 27.0°C (81°F)
Dewpoint: 21.0°C (70°F) [RH = 70%]
Pressure (altimeter): 30.00 inches Hg (1016.0 mb)
Winds: from the WSW (250 degrees) at 13 MPH (11 knots; 5.7 m/s)
Visibility: 6 or more miles (10+ km)
Ceiling: 1000 feet AGL
Clouds: broken clouds at 1000 feet AGL
Weather: no significant weather observed at this time

METAR text: DNAA 221000Z 27003KT 190V340 9999 BKN008 26/21 Q1017 NOSIG
Conditions at: DNAA (ABUJA , NG) observed 1000 UTC 22 July 2019
Temperature: 26.0°C (79°F)
Dewpoint: 21.0°C (70°F) [RH = 74%]
Pressure (altimeter): 30.03 inches Hg (1017.0 mb)
Winds: from the W (270 degrees) at 3 MPH (3 knots; 1.5 m/s)
Visibility: 6 or more miles (10+ km)
Ceiling: 800 feet AGL
Clouds: broken clouds at 800 feet AGL
Weather: no significant weather observed at this time

METAR text: DNAA 220900Z 21006KT 180V250 9999 BKN007 25/22 Q1017 NOSIG
Conditions at: DNAA (ABUJA , NG) observed 0900 UTC 22 July 2019
Temperature: 25.0°C (77°F)
Dewpoint: 22.0°C (72°F) [RH = 83%]
Pressure (altimeter): 30.03 inches Hg (1017.0 mb)
Winds: from the SSW (210 degrees) at 7 MPH (6 knots; 3.1 m/s)
Visibility: 6 or more miles (10+ km)
Ceiling: 700 feet AGL
Clouds: broken clouds at 700 feet AGL
Weather: no significant weather observed at this time

METAR text: DNAA 220800Z 20006KT 9999 BKN007 24/21 Q1016 NOSIG
Conditions at: DNAA (ABUJA , NG) observed 0800 UTC 22 July 2019
Temperature: 24.0°C (75°F)
Dewpoint: 21.0°C (70°F) [RH = 83%]
Pressure (altimeter): 30.00 inches Hg (1016.0 mb)
Winds: from the SSW (200 degrees) at 7 MPH (6 knots; 3.1 m/s)
Visibility: 6 or more miles (10+ km)
Ceiling: 700 feet AGL
Clouds: broken clouds at 700 feet AGL
Weather: no significant weather observed at this time

METAR text: DNAA 220500Z 20008KT TS BKN007 FEW019CB 23/20 Q1015 NOSIG RMK CB N TO SW
Conditions at: DNAA (ABUJA , NG) observed 0500 UTC 22 July 2019
Temperature: 23.0°C (73°F)
Dewpoint: 20.0°C (68°F) [RH = 83%]
Pressure (altimeter): 29.97 inches Hg (1015.0 mb)
Winds: from the SSW (200 degrees) at 9 MPH (8 knots; 4.1 m/s)
Visibility: missing
Ceiling: 700 feet AGL
Clouds: broken clouds at 700 feet AGL
few clouds at 1900 feet AGL
Weather: TS  (thunderstorm)

METAR text: DNAA 220000Z 08003KT 360V160 9999 FEW009 25/21 Q1015 NOSIG
Conditions at: DNAA (ABUJA , NG) observed 0000 UTC 22 July 2019
Temperature: 25.0°C (77°F)
Dewpoint: 21.0°C (70°F) [RH = 79%]
Pressure (altimeter): 29.97 inches Hg (1015.0 mb)
Winds: from the E (80 degrees) at 3 MPH (3 knots; 1.5 m/s)
Visibility: 6 or more miles (10+ km)
Ceiling: at least 12,000 feet AGL
Clouds: few clouds at 900 feet AGL
Weather: no significant weather observed at this time

METAR text: DNAA 212300Z 09003KT 9999 FEW009 25/21 Q1015 NOSIG
Conditions at: DNAA (ABUJA , NG) observed 2300 UTC 21 July 2019
Temperature: 25.0°C (77°F)
Dewpoint: 21.0°C (70°F) [RH = 79%]
Pressure (altimeter): 29.97 inches Hg (1015.0 mb)
Winds: from the E (90 degrees) at 3 MPH (3 knots; 1.5 m/s)
Visibility: 6 or more miles (10+ km)
Ceiling: at least 12,000 feet AGL
Clouds: few clouds at 900 feet AGL
Weather: no significant weather observed at this time

Forecast for: DNAA (ABUJA , NG)
Text: TAF DNAA 230340Z 2306/2412 16002KT 9999 FEW008
Forecast period: 0600 to 0700 UTC 23 July 2019
Forecast type: FROM: standard forecast or significant change
Winds: from the SSE (160 degrees) at 2 MPH (2 knots; 1.0 m/s)
Visibility: 6 or more miles 10+ km)
Ceiling: at least 12,000 feet AGL
Clouds: few clouds at 800 feet AGL
Weather: no significant weather forecast for this period
Text: BECMG 2307/2309 22008KT BKN008
Forecast period: 0700 to 1800 UTC 23 July 2019
Forecast type: BECOMING: Conditions expected to become as follows by 0900 UTC 23 July 2019
Winds: from the SW (220 degrees) at 9 MPH (8 knots; 4.1 m/s)
Visibility: 6 or more miles 10+ km)
Ceiling: 800 feet AGL
Clouds: broken clouds at 800 feet AGL
Weather: no significant weather forecast for this period
Text: PROB30
Forecast period: 1100 to 1600 UTC 23 July 2019
Forecast type: TEMPORARY: The following changes expected for less than half the time period
Visibility: missing
Ceiling: at least 12,000 feet AGL
Clouds: few clouds at 2000 feet AGL
Weather: TS  (thunderstorm)
Text: TEMPO 2311/2316 TS FEW020CB
Forecast period: 1800 UTC 23 July 2019 to 1200 UTC 24 July 2019
Forecast type: BECOMING: Conditions expected to become as follows by 2000 UTC 23 July 2019
Winds: from the S (170 degrees) at 5 MPH (4 knots; 2.1 m/s)
Visibility: 6 or more miles 10+ km)
Ceiling: at least 12,000 feet AGL
Clouds: few clouds at 800 feet AGL
Weather: no significant weather forecast for this period